createdAt,value
2018-10-06T00:02:49.208Z,12.80
2018-10-06T00:06:22.512Z,12.80
2018-10-06T00:09:56.140Z,12.70
2018-10-06T00:13:29.400Z,12.70
2018-10-06T00:17:02.624Z,12.70
2018-10-06T00:20:35.843Z,12.70
2018-10-06T00:24:09.061Z,12.60
2018-10-06T00:27:42.283Z,12.60
2018-10-06T00:31:15.495Z,12.60
2018-10-06T00:34:49.038Z,12.60
2018-10-06T00:38:22.271Z,12.50
2018-10-06T00:41:55.508Z,12.50
2018-10-06T00:45:28.733Z,12.50
2018-10-06T00:49:01.939Z,12.40
2018-10-06T00:52:35.159Z,12.40
2018-10-06T00:56:08.404Z,12.40
2018-10-06T00:59:41.628Z,12.40
2018-10-06T01:03:14.842Z,12.40
2018-10-06T01:06:48.129Z,12.40
2018-10-06T01:10:21.351Z,12.40
2018-10-06T01:13:54.945Z,12.40
2018-10-06T01:17:28.171Z,12.30
2018-10-06T01:21:01.441Z,12.30
2018-10-06T01:24:34.755Z,12.30
2018-10-06T01:28:07.989Z,12.30
2018-10-06T01:31:41.229Z,12.20
2018-10-06T01:35:14.461Z,12.20
2018-10-06T01:38:47.693Z,12.20
2018-10-06T01:42:20.900Z,12.20
2018-10-06T01:45:54.132Z,12.20
2018-10-06T01:49:27.360Z,12.20
2018-10-06T01:53:00.580Z,12.20
2018-10-06T01:56:33.807Z,12.20
2018-10-06T02:00:07.036Z,12.20
2018-10-06T02:03:40.261Z,12.20
2018-10-06T02:07:13.476Z,12.20
2018-10-06T02:10:46.842Z,12.20
2018-10-06T02:14:20.073Z,12.10
2018-10-06T02:17:53.284Z,12.20
2018-10-06T02:21:26.510Z,12.10
2018-10-06T02:24:59.727Z,12.10
2018-10-06T02:28:32.928Z,12.10
2018-10-06T02:32:06.302Z,12.10
2018-10-06T02:35:39.545Z,12.10
2018-10-06T02:39:12.762Z,12.10
2018-10-06T02:42:45.974Z,12.10
2018-10-06T02:46:19.232Z,12.10
2018-10-06T02:49:52.466Z,12.10
2018-10-06T02:53:25.678Z,12.10
2018-10-06T02:56:58.901Z,12.20
2018-10-06T03:00:32.124Z,12.20
2018-10-06T03:04:05.339Z,12.20
2018-10-06T03:07:38.569Z,12.20
2018-10-06T03:11:11.811Z,12.20
2018-10-06T03:14:45.039Z,12.20
2018-10-06T03:18:18.258Z,12.20
2018-10-06T03:21:51.487Z,12.20
2018-10-06T03:25:26.361Z,12.10
2018-10-06T03:28:59.590Z,12.10
2018-10-06T03:32:32.861Z,12.10
2018-10-06T03:36:06.645Z,12.00
2018-10-06T03:39:39.859Z,12.00
2018-10-06T03:43:13.119Z,12.00
2018-10-06T03:46:46.423Z,12.00
2018-10-06T03:50:19.650Z,12.00
2018-10-06T03:53:52.953Z,12.00
2018-10-06T03:57:26.110Z,12.00
2018-10-06T04:00:59.334Z,12.10
2018-10-06T04:04:32.549Z,12.10
2018-10-06T04:08:05.860Z,12.10
2018-10-06T04:11:39.071Z,12.00
2018-10-06T04:15:12.288Z,12.00
2018-10-06T04:18:45.547Z,12.00
2018-10-06T04:22:18.777Z,12.00
2018-10-06T04:25:52.008Z,11.90
2018-10-06T04:29:25.234Z,11.90
2018-10-06T04:32:58.516Z,11.80
2018-10-06T04:36:31.908Z,11.80
2018-10-06T04:40:05.154Z,11.80
2018-10-06T04:43:38.403Z,11.70
2018-10-06T04:47:11.638Z,11.70
2018-10-06T04:50:44.863Z,11.70
2018-10-06T04:54:18.115Z,11.60
2018-10-06T04:57:51.352Z,11.60
2018-10-06T05:01:25.301Z,11.60
2018-10-06T05:04:58.522Z,11.60
2018-10-06T05:08:31.747Z,11.60
2018-10-06T05:12:05.004Z,11.60
2018-10-06T05:15:38.223Z,11.60
2018-10-06T05:19:11.456Z,11.60
2018-10-06T05:22:44.753Z,11.60
2018-10-06T05:26:17.988Z,11.60
2018-10-06T05:29:51.202Z,11.60
2018-10-06T05:33:24.439Z,11.60
2018-10-06T05:36:57.733Z,11.60
2018-10-06T05:40:30.945Z,11.60
2018-10-06T05:44:04.183Z,11.60
2018-10-06T05:47:37.420Z,11.60
2018-10-06T05:51:10.656Z,11.60
2018-10-06T05:54:43.920Z,11.60
2018-10-06T05:58:17.149Z,11.70
2018-10-06T06:01:50.416Z,11.70
2018-10-06T06:05:23.631Z,11.70
2018-10-06T06:08:56.888Z,11.70
2018-10-06T06:12:30.126Z,11.70
2018-10-06T06:16:03.336Z,11.70
2018-10-06T06:19:36.630Z,11.70
2018-10-06T06:23:09.867Z,11.80
2018-10-06T06:26:43.080Z,11.80
2018-10-06T06:30:16.311Z,11.90
2018-10-06T06:33:49.550Z,11.90
2018-10-06T06:37:22.792Z,11.90
2018-10-06T06:40:56.006Z,12.00
2018-10-06T06:44:29.366Z,12.00
2018-10-06T06:48:02.508Z,12.10
2018-10-06T06:51:35.743Z,12.10
2018-10-06T06:55:09.009Z,12.20
2018-10-06T06:58:42.708Z,12.20
2018-10-06T07:02:15.930Z,12.30
2018-10-06T07:05:49.190Z,12.40
2018-10-06T07:09:22.404Z,12.50
2018-10-06T07:12:55.640Z,12.60
2018-10-06T07:16:28.865Z,12.60
2018-10-06T07:20:02.082Z,12.80
2018-10-06T07:23:35.322Z,12.90
2018-10-06T07:27:08.573Z,13.00
2018-10-06T07:30:41.809Z,13.10
2018-10-06T07:34:15.084Z,13.20
2018-10-06T07:37:48.290Z,13.40
2018-10-06T07:41:21.527Z,13.50
2018-10-06T07:44:54.792Z,13.50
2018-10-06T07:48:28.060Z,13.60
2018-10-06T07:52:01.302Z,13.70
2018-10-06T07:55:34.551Z,13.80
2018-10-06T07:59:07.849Z,13.90
2018-10-06T08:02:41.031Z,14.00
2018-10-06T08:06:14.305Z,14.20
2018-10-06T08:09:47.520Z,14.30
2018-10-06T08:13:20.813Z,14.50
2018-10-06T08:16:54.051Z,14.70
2018-10-06T08:20:27.272Z,15.00
2018-10-06T08:24:00.752Z,15.20
2018-10-06T08:27:34.033Z,15.40
2018-10-06T08:31:07.567Z,15.60
2018-10-06T08:34:40.792Z,15.80
2018-10-06T08:38:14.029Z,15.90
2018-10-06T08:41:47.264Z,16.10
2018-10-06T08:45:20.505Z,16.30
2018-10-06T08:48:53.716Z,16.40
2018-10-06T08:52:26.936Z,16.50
2018-10-06T08:56:00.488Z,16.50
2018-10-06T08:59:33.639Z,16.60
2018-10-06T09:03:06.872Z,16.80
2018-10-06T09:06:40.095Z,16.90
2018-10-06T09:10:13.312Z,17.10
2018-10-06T09:13:46.563Z,17.20
2018-10-06T09:17:19.795Z,17.30
2018-10-06T09:20:53.122Z,17.40
2018-10-06T09:24:26.335Z,17.60
2018-10-06T09:27:59.572Z,17.80
2018-10-06T09:31:32.924Z,18.10
2018-10-06T09:35:06.296Z,18.30
2018-10-06T09:38:39.511Z,18.50
2018-10-06T09:42:12.981Z,18.70
2018-10-06T09:45:46.057Z,18.90
2018-10-06T09:49:19.255Z,19.00
2018-10-06T09:52:52.699Z,19.10
2018-10-06T09:56:25.935Z,19.00
2018-10-06T09:59:59.140Z,19.10
2018-10-06T10:03:37.956Z,19.20
2018-10-06T10:07:11.196Z,19.40
2018-10-06T10:10:44.727Z,19.60
2018-10-06T10:14:17.947Z,19.80
2018-10-06T10:17:51.324Z,20.00
2018-10-06T10:21:24.454Z,20.10
2018-10-06T10:24:58.610Z,20.10
2018-10-06T10:28:31.912Z,20.10
2018-10-06T10:32:05.094Z,20.20
2018-10-06T10:35:38.309Z,20.20
2018-10-06T10:39:11.627Z,20.20
2018-10-06T10:42:44.832Z,20.30
2018-10-06T10:46:18.073Z,20.30
2018-10-06T10:49:51.646Z,20.40
2018-10-06T10:53:24.884Z,20.50
2018-10-06T10:56:58.145Z,20.60
2018-10-06T11:00:31.441Z,20.80
2018-10-06T11:04:04.696Z,20.80
2018-10-06T11:07:38.030Z,20.90
2018-10-06T11:11:11.287Z,21.00
2018-10-06T11:14:44.527Z,21.20
2018-10-06T11:18:17.750Z,21.40
2018-10-06T11:21:51.034Z,21.50
2018-10-06T11:25:24.260Z,21.60
2018-10-06T11:28:57.483Z,21.80
2018-10-06T11:32:30.740Z,21.90
2018-10-06T11:36:03.945Z,22.00
2018-10-06T11:39:37.163Z,22.10
2018-10-06T11:43:10.383Z,22.20
2018-10-06T11:46:43.596Z,22.30
2018-10-06T11:50:16.919Z,22.30
2018-10-06T11:53:50.706Z,22.40
2018-10-06T11:57:23.943Z,22.50
2018-10-06T12:00:57.172Z,22.60
2018-10-06T12:04:30.399Z,22.70
2018-10-06T12:08:03.615Z,22.70
2018-10-06T12:11:37.161Z,22.70
2018-10-06T12:15:10.395Z,22.80
2018-10-06T12:18:43.633Z,22.80
2018-10-06T12:22:16.855Z,22.80
2018-10-06T12:25:50.090Z,22.70
2018-10-06T12:29:23.320Z,22.70
2018-10-06T12:32:56.532Z,22.80
2018-10-06T12:36:29.751Z,22.90
2018-10-06T12:40:03.004Z,23.10
2018-10-06T12:43:36.218Z,23.20
2018-10-06T12:47:09.659Z,23.30
2018-10-06T12:50:42.883Z,23.40
2018-10-06T12:54:16.102Z,23.40
2018-10-06T12:57:49.330Z,23.40
2018-10-06T13:01:22.567Z,23.40
2018-10-06T13:04:55.793Z,23.40
2018-10-06T13:08:29.029Z,23.40
2018-10-06T13:12:02.356Z,23.50
2018-10-06T13:15:35.771Z,23.50
2018-10-06T13:19:08.998Z,23.50
2018-10-06T13:22:42.228Z,23.40
2018-10-06T13:26:15.465Z,23.50
2018-10-06T13:29:48.702Z,23.50
2018-10-06T13:33:21.910Z,23.50
2018-10-06T13:36:55.144Z,23.60
2018-10-06T13:40:28.368Z,23.60
2018-10-06T13:44:01.658Z,23.60
2018-10-06T13:47:34.875Z,23.70
2018-10-06T13:51:08.568Z,23.80
2018-10-06T13:54:41.822Z,23.80
2018-10-06T13:58:15.103Z,24.00
2018-10-06T14:01:48.267Z,24.10
2018-10-06T14:05:21.515Z,24.30
2018-10-06T14:08:54.728Z,24.40
2018-10-06T14:12:27.961Z,24.60
2018-10-06T14:16:01.184Z,24.60
2018-10-06T14:19:34.399Z,24.70
2018-10-06T14:23:07.629Z,24.80
2018-10-06T14:26:40.863Z,24.90
2018-10-06T14:30:14.092Z,25.00
2018-10-06T14:33:47.534Z,25.10
2018-10-06T14:37:20.780Z,25.10
2018-10-06T14:40:54.183Z,25.10
2018-10-06T14:44:27.440Z,25.00
2018-10-06T14:48:00.700Z,24.90
2018-10-06T14:51:33.938Z,24.80
2018-10-06T14:55:08.140Z,24.70
2018-10-06T14:58:41.368Z,24.60
2018-10-06T15:02:14.603Z,24.50
2018-10-06T15:05:47.834Z,24.30
2018-10-06T15:09:21.081Z,24.20
2018-10-06T15:12:54.343Z,24.10
2018-10-06T15:16:27.595Z,24.00
2018-10-06T15:20:00.822Z,23.80
2018-10-06T15:23:34.043Z,23.70
2018-10-06T15:27:07.267Z,23.60
2018-10-06T15:30:40.485Z,23.50
2018-10-06T15:34:13.716Z,23.40
2018-10-06T15:37:46.993Z,23.30
2018-10-06T15:41:20.183Z,23.20
2018-10-06T15:44:53.406Z,23.00
2018-10-06T15:48:26.631Z,22.90
2018-10-06T15:51:59.857Z,22.80
2018-10-06T15:55:33.077Z,22.70
2018-10-06T15:59:07.122Z,22.60
2018-10-06T16:02:40.362Z,22.50
2018-10-06T16:06:13.599Z,22.40
2018-10-06T16:09:46.825Z,22.30
2018-10-06T16:13:20.067Z,22.20
2018-10-06T16:16:53.280Z,22.10
2018-10-06T16:20:26.515Z,22.00
2018-10-06T16:23:59.784Z,21.90
2018-10-06T16:27:33.075Z,21.90
2018-10-06T16:31:06.750Z,21.80
2018-10-06T16:34:39.973Z,21.80
2018-10-06T16:38:13.188Z,21.70
2018-10-06T16:41:46.424Z,21.60
2018-10-06T16:45:19.652Z,21.60
2018-10-06T16:48:52.893Z,21.50
2018-10-06T16:52:26.163Z,21.40
2018-10-06T16:55:59.416Z,21.40
2018-10-06T16:59:32.656Z,21.30
2018-10-06T17:03:05.896Z,21.30
2018-10-06T17:06:39.119Z,21.30
2018-10-06T17:10:12.333Z,21.20
2018-10-06T17:13:45.612Z,21.20
2018-10-06T17:17:18.826Z,21.20
2018-10-06T17:20:52.072Z,21.10
2018-10-06T17:24:25.348Z,21.00
2018-10-06T17:27:58.535Z,21.00
2018-10-06T17:31:31.772Z,20.90
2018-10-06T17:35:04.996Z,20.90
2018-10-06T17:38:38.279Z,20.90
2018-10-06T17:42:11.464Z,20.90
2018-10-06T17:45:44.699Z,20.80
2018-10-06T17:49:17.932Z,20.80
2018-10-06T17:52:51.179Z,20.70
2018-10-06T17:56:24.402Z,20.60
2018-10-06T17:59:57.654Z,20.50
2018-10-06T18:03:30.895Z,20.40
2018-10-06T18:07:04.112Z,20.30
2018-10-06T18:10:37.349Z,20.10
2018-10-06T18:14:10.613Z,20.10
2018-10-06T18:17:43.844Z,20.00
2018-10-06T18:21:17.183Z,19.90
2018-10-06T18:24:50.979Z,19.90
2018-10-06T18:28:24.215Z,19.80
2018-10-06T18:31:57.433Z,19.70
2018-10-06T18:35:31.532Z,19.70
2018-10-06T18:39:06.155Z,19.60
2018-10-06T18:42:39.824Z,19.60
2018-10-06T18:46:13.051Z,19.50
2018-10-06T18:49:46.339Z,19.50
2018-10-06T18:53:19.628Z,19.40
2018-10-06T18:56:52.866Z,19.40
2018-10-06T19:00:26.084Z,19.40
2018-10-06T19:03:59.357Z,19.40
2018-10-06T19:07:32.631Z,19.40
2018-10-06T19:11:06.009Z,19.40
2018-10-06T19:14:39.324Z,19.40
2018-10-06T19:18:12.592Z,19.40
2018-10-06T19:21:46.289Z,19.30
2018-10-06T19:25:19.799Z,19.30
2018-10-06T19:28:53.354Z,19.30
2018-10-06T19:32:26.955Z,19.30
2018-10-06T19:36:00.612Z,19.30
2018-10-06T19:39:34.423Z,19.30
2018-10-06T19:43:07.856Z,19.30
2018-10-06T19:46:41.383Z,19.30
2018-10-06T19:50:14.864Z,19.20
2018-10-06T19:53:48.208Z,19.20
2018-10-06T19:57:21.472Z,19.20
2018-10-06T20:00:54.701Z,19.20
2018-10-06T20:04:27.958Z,19.20
2018-10-06T20:08:01.917Z,19.20
2018-10-06T20:11:38.250Z,19.10
2018-10-06T20:15:11.558Z,19.10
2018-10-06T20:18:45.096Z,19.10
2018-10-06T20:22:18.692Z,19.10
2018-10-06T20:25:51.980Z,19.00
2018-10-06T20:29:25.591Z,19.00
2018-10-06T20:32:58.887Z,18.90
2018-10-06T20:36:32.169Z,18.90
2018-10-06T20:40:05.527Z,18.90
2018-10-06T20:43:38.727Z,18.90
2018-10-06T20:47:11.991Z,18.90
2018-10-06T20:50:45.333Z,18.80
2018-10-06T20:54:18.620Z,18.80
2018-10-06T20:57:51.865Z,18.80
2018-10-06T21:01:25.091Z,18.70
2018-10-06T21:04:58.302Z,18.70
2018-10-06T21:08:31.547Z,18.60
2018-10-06T21:12:04.796Z,18.50
2018-10-06T21:15:38.099Z,18.50
2018-10-06T21:19:11.311Z,18.40
2018-10-06T21:22:44.545Z,18.30
2018-10-06T21:26:17.757Z,18.20
2018-10-06T21:29:50.960Z,18.10
2018-10-06T21:33:24.356Z,18.00
2018-10-06T21:36:57.587Z,18.00
2018-10-06T21:40:30.827Z,17.90
2018-10-06T21:44:04.088Z,17.80
2018-10-06T21:47:37.321Z,17.80
2018-10-06T21:51:10.545Z,17.70
2018-10-06T21:54:43.768Z,17.60
2018-10-06T21:58:17.012Z,17.60
2018-10-06T22:01:50.226Z,17.60
2018-10-06T22:05:23.455Z,17.60
2018-10-06T22:08:56.681Z,17.50
2018-10-06T22:12:29.924Z,17.50
2018-10-06T22:16:03.254Z,17.40
2018-10-06T22:19:36.572Z,17.30
2018-10-06T22:23:09.914Z,17.30
2018-10-06T22:26:43.197Z,17.20
2018-10-06T22:30:16.488Z,17.20
2018-10-06T22:33:49.791Z,17.10
2018-10-06T22:37:23.054Z,17.10
2018-10-06T22:40:56.380Z,17.10
2018-10-06T22:44:29.659Z,17.10
2018-10-06T22:48:02.873Z,17.10
2018-10-06T22:51:36.085Z,17.10
2018-10-06T22:55:09.330Z,17.20
2018-10-06T22:58:42.571Z,17.20
2018-10-06T23:02:15.812Z,17.20
2018-10-06T23:05:49.031Z,17.20
2018-10-06T23:09:22.260Z,17.20
2018-10-06T23:12:55.487Z,17.20
2018-10-06T23:16:28.694Z,17.20
2018-10-06T23:20:01.955Z,17.20
2018-10-06T23:23:35.168Z,17.20
2018-10-06T23:27:08.379Z,17.10
2018-10-06T23:30:41.615Z,17.10
2018-10-06T23:34:14.839Z,17.10
2018-10-06T23:37:48.070Z,17.00
2018-10-06T23:41:21.371Z,17.00
2018-10-06T23:44:54.595Z,17.00
2018-10-06T23:48:27.820Z,17.00
2018-10-06T23:52:01.023Z,16.90
2018-10-06T23:55:34.237Z,16.90
2018-10-06T23:59:07.472Z,16.90
